METAR ET TAF INFORMATION
METAR FOR LFQB
ADDS - METARS form results

(0613 UTC 27 June 2022)
Data provider http://aviationweather.gov/metar/data/
 
METAR text: LFQB 270600Z AUTO 00000KT 9999 FEW045 SCT062 OVC076 15/14 Q1016
Conditions at: LFQB (TROYES/BARBEREY , FR) observed 0600 UTC 27 June 2022
Temperature: 15.0°C (59°F)
Dewpoint: 14.0°C (57°F) [RH = 94%]
Pressure (altimeter): 30.00 inches Hg (1016.0 mb)
Winds: calm
Visibility: 6 or more miles (10+ km)
Ceiling: 7600 feet AGL
Clouds: few clouds at 4500 feet AGL
scattered clouds at 6200 feet AGL
overcast cloud deck at 7600 feet AGL
Weather: no significant weather observed at this time

METAR text: LFQB 270530Z AUTO 00000KT 9999 FEW031 OVC046 15/14 Q1016
Conditions at: LFQB (TROYES/BARBEREY , FR) observed 0530 UTC 27 June 2022
Temperature: 15.0°C (59°F)
Dewpoint: 14.0°C (57°F) [RH = 94%]
Pressure (altimeter): 30.00 inches Hg (1016.0 mb)
Winds: calm
Visibility: 6 or more miles (10+ km)
Ceiling: 4600 feet AGL
Clouds: few clouds at 3100 feet AGL
overcast cloud deck at 4600 feet AGL
Weather: no significant weather observed at this time

 AÉROPORT DE AÉROPORT

 INFORMATIONS DE PISTE
Piste 05 Longueur de la piste 2559 ft Largeur de la piste 328 ft
Élévation de la piste 388 ft Seuil de la piste déplacés 426 ft Runway heading 52
Piste 23 Longueur de la piste 2559 ft Largeur de la piste 328 ft
Élévation de la piste 371 ft Seuil de la piste déplacés 0 ft Runway heading 232
Piste 18 Longueur de la piste 5413 ft Largeur de la piste 98 ft
Élévation de la piste 365 ft Seuil de la piste déplacés 0 ft Runway heading 174
Piste 36 Longueur de la piste 5413 ft Largeur de la piste 98 ft
Élévation de la piste 384 ft Seuil de la piste déplacés 377 ft Runway heading 354
Piste 18R Longueur de la piste 2953 ft Largeur de la piste 328 ft
Élévation de la piste 387 ft Seuil de la piste déplacés 0 ft Runway heading 174
Piste 36L Longueur de la piste 2953 ft Largeur de la piste 328 ft
Élévation de la piste 382 ft Seuil de la piste déplacés 0 ft Runway heading 354

 AÉROPORT FRÉQUENCES
Type AFIS Nom TROYES INF Féquence 125.35 MHZ
Type APP Nom SEINE APP Féquence 121.65 MHZ

 SIDA DE NAVIGATION
Type VOR Nom Troyes Féquence 116000 KHZ